createdAt,value
2018-12-31T00:00:19.344Z,12.07
2018-12-31T00:02:48.405Z,13.10
2018-12-31T00:05:17.460Z,13.43
2018-12-31T00:07:46.528Z,11.63
2018-12-31T00:10:15.582Z,12.88
2018-12-31T00:12:44.614Z,10.03
2018-12-31T00:15:13.688Z,11.45
2018-12-31T00:17:42.735Z,9.90
2018-12-31T00:20:11.787Z,11.38
2018-12-31T00:22:40.897Z,8.35
2018-12-31T00:25:09.942Z,7.78
2018-12-31T00:27:39.267Z,11.53
2018-12-31T00:30:08.334Z,14.38
2018-12-31T00:32:37.374Z,11.48
2018-12-31T00:35:06.433Z,12.45
2018-12-31T00:37:35.483Z,11.97
2018-12-31T00:40:05.358Z,11.22
2018-12-31T00:42:34.390Z,8.95
2018-12-31T00:45:03.591Z,9.65
2018-12-31T00:47:32.655Z,10.38
2018-12-31T00:50:01.690Z,8.40
2018-12-31T00:52:30.727Z,7.78
2018-12-31T00:54:59.772Z,10.70
2018-12-31T00:57:28.917Z,7.25
2018-12-31T00:59:57.965Z,13.93
2018-12-31T01:02:27.030Z,9.10
2018-12-31T01:04:56.289Z,9.30
2018-12-31T01:07:25.335Z,10.48
2018-12-31T01:09:54.411Z,12.20
2018-12-31T01:12:23.462Z,11.12
2018-12-31T01:14:52.511Z,9.65
2018-12-31T01:17:21.567Z,10.23
2018-12-31T01:19:50.609Z,10.85
2018-12-31T01:22:19.661Z,12.37
2018-12-31T01:24:48.843Z,13.03
2018-12-31T01:27:17.893Z,11.30
2018-12-31T01:29:46.967Z,10.98
2018-12-31T01:32:16.035Z,9.00
2018-12-31T01:34:45.153Z,13.32
2018-12-31T01:37:14.231Z,11.80
2018-12-31T01:39:43.269Z,10.95
2018-12-31T01:42:12.337Z,11.68
2018-12-31T01:44:41.367Z,10.15
2018-12-31T01:47:10.433Z,10.20
2018-12-31T01:49:39.493Z,10.90
2018-12-31T01:52:08.546Z,9.88
2018-12-31T01:54:37.602Z,11.80
2018-12-31T01:57:06.675Z,14.53
2018-12-31T01:59:35.711Z,9.83
2018-12-31T02:02:04.786Z,11.75
2018-12-31T02:04:33.823Z,9.80
2018-12-31T02:07:02.867Z,10.40
2018-12-31T02:09:31.892Z,7.28
2018-12-31T02:12:00.928Z,8.83
2018-12-31T02:14:29.990Z,10.65
2018-12-31T02:16:59.111Z,10.28
2018-12-31T02:19:28.139Z,9.38
2018-12-31T02:21:57.205Z,10.23
2018-12-31T02:24:26.221Z,9.13
2018-12-31T02:26:55.259Z,8.53
2018-12-31T02:29:24.311Z,13.35
2018-12-31T02:31:53.360Z,10.93
2018-12-31T02:34:22.421Z,14.85
2018-12-31T02:36:51.458Z,9.03
2018-12-31T02:39:20.521Z,10.53
2018-12-31T02:41:49.569Z,11.10
2018-12-31T02:44:18.615Z,9.83
2018-12-31T02:46:47.671Z,15.83
2018-12-31T02:49:16.767Z,9.68
2018-12-31T02:51:45.815Z,11.57
2018-12-31T02:54:14.883Z,10.72
2018-12-31T02:56:43.921Z,12.05
2018-12-31T02:59:12.982Z,13.48
2018-12-31T03:01:42.052Z,11.80
2018-12-31T03:04:11.124Z,9.58
2018-12-31T03:06:40.142Z,9.15
2018-12-31T03:09:09.214Z,10.60
2018-12-31T03:11:38.263Z,11.53
2018-12-31T03:14:07.315Z,12.50
2018-12-31T03:16:36.376Z,10.85
2018-12-31T03:19:05.464Z,8.48
2018-12-31T03:21:34.603Z,9.90
2018-12-31T03:24:03.669Z,13.62
2018-12-31T03:26:32.719Z,10.72
2018-12-31T03:29:01.778Z,9.28
2018-12-31T03:31:30.818Z,8.10
2018-12-31T03:33:59.853Z,8.30
2018-12-31T03:36:28.901Z,9.03
2018-12-31T03:38:57.985Z,8.35
2018-12-31T03:41:27.031Z,12.10
2018-12-31T03:43:56.084Z,8.43
2018-12-31T03:46:25.177Z,6.37
2018-12-31T03:48:54.277Z,11.25
2018-12-31T03:51:23.398Z,13.50
2018-12-31T03:53:52.471Z,11.20
2018-12-31T03:56:21.502Z,9.10
2018-12-31T03:58:50.542Z,10.70
2018-12-31T04:01:19.579Z,8.23
2018-12-31T04:03:48.609Z,9.50
2018-12-31T04:06:17.668Z,9.80
2018-12-31T04:08:46.704Z,8.18
2018-12-31T04:11:15.746Z,11.20
2018-12-31T04:13:44.804Z,10.20
2018-12-31T04:16:13.923Z,7.87
2018-12-31T04:18:42.967Z,9.65
2018-12-31T04:21:11.996Z,9.53
2018-12-31T04:23:41.049Z,11.08
2018-12-31T04:26:10.121Z,10.82
2018-12-31T04:28:39.172Z,11.48
2018-12-31T04:31:08.238Z,10.78
2018-12-31T04:33:37.269Z,6.75
2018-12-31T04:36:06.328Z,6.25
2018-12-31T04:38:35.345Z,8.95
2018-12-31T04:41:04.409Z,10.18
2018-12-31T04:43:33.448Z,9.78
2018-12-31T04:46:02.486Z,8.55
2018-12-31T04:48:31.536Z,10.58
2018-12-31T04:51:00.580Z,9.13
2018-12-31T04:53:29.632Z,10.90
2018-12-31T04:55:58.688Z,15.43
2018-12-31T04:58:29.273Z,15.00
2018-12-31T05:00:58.496Z,10.38
2018-12-31T05:03:27.532Z,8.75
2018-12-31T05:05:56.560Z,7.70
2018-12-31T05:08:25.618Z,8.65
2018-12-31T05:10:54.696Z,11.08
2018-12-31T05:13:23.802Z,9.68
2018-12-31T05:15:52.917Z,7.80
2018-12-31T05:18:21.936Z,7.90
2018-12-31T05:20:50.979Z,7.20
2018-12-31T05:23:20.010Z,9.35
2018-12-31T05:25:49.143Z,9.50
2018-12-31T05:28:18.177Z,6.97
2018-12-31T05:30:47.264Z,8.75
2018-12-31T05:33:16.390Z,12.23
2018-12-31T05:35:45.425Z,7.92
2018-12-31T05:38:14.474Z,11.18
2018-12-31T05:40:43.538Z,10.38
2018-12-31T05:43:12.650Z,8.80
2018-12-31T05:45:41.728Z,7.10
2018-12-31T05:48:10.792Z,6.97
2018-12-31T05:50:39.857Z,8.85
2018-12-31T05:53:08.878Z,9.48
2018-12-31T05:55:37.902Z,8.98
2018-12-31T05:58:06.950Z,7.90
2018-12-31T06:00:36.609Z,9.58
2018-12-31T06:03:05.680Z,10.80
2018-12-31T06:05:34.718Z,10.10
2018-12-31T06:08:03.782Z,10.48
2018-12-31T06:10:32.879Z,10.80
2018-12-31T06:13:02.386Z,11.60
2018-12-31T06:15:31.421Z,9.83
2018-12-31T06:18:00.479Z,8.83
2018-12-31T06:20:29.510Z,9.85
2018-12-31T06:22:58.575Z,10.15
2018-12-31T06:25:27.634Z,12.53
2018-12-31T06:27:56.685Z,9.93
2018-12-31T06:30:25.727Z,9.35
2018-12-31T06:32:54.788Z,12.23
2018-12-31T06:35:23.840Z,11.93
2018-12-31T06:37:52.945Z,10.78
2018-12-31T06:40:21.989Z,13.40
2018-12-31T06:42:51.071Z,12.75
2018-12-31T06:45:20.114Z,11.30
2018-12-31T06:47:49.159Z,12.40
2018-12-31T06:50:18.345Z,13.53
2018-12-31T06:52:47.390Z,10.90
2018-12-31T06:55:16.427Z,12.33
2018-12-31T06:57:45.491Z,11.50
2018-12-31T07:00:14.535Z,11.83
2018-12-31T07:02:43.591Z,14.15
2018-12-31T07:05:12.648Z,13.75
2018-12-31T07:07:41.721Z,15.03
2018-12-31T07:10:10.767Z,15.63
2018-12-31T07:12:39.841Z,17.15
2018-12-31T07:15:08.950Z,18.52
2018-12-31T07:17:38.010Z,14.80
2018-12-31T07:20:07.525Z,15.20
2018-12-31T07:22:36.591Z,18.17
2018-12-31T07:25:05.641Z,13.62
2018-12-31T07:27:34.738Z,15.90
2018-12-31T07:30:04.977Z,18.20
2018-12-31T07:32:34.057Z,17.95
2018-12-31T07:35:03.099Z,14.03
2018-12-31T07:37:32.161Z,16.77
2018-12-31T07:40:01.207Z,18.48
2018-12-31T07:42:30.267Z,14.80
2018-12-31T07:44:59.327Z,14.15
2018-12-31T07:47:28.361Z,15.83
2018-12-31T07:49:57.429Z,18.70
2018-12-31T07:52:26.479Z,18.10
2018-12-31T07:54:55.545Z,15.90
2018-12-31T07:57:24.593Z,17.65
2018-12-31T07:59:53.658Z,15.23
2018-12-31T08:02:22.703Z,18.48
2018-12-31T08:04:51.782Z,18.75
2018-12-31T08:07:20.831Z,16.27
2018-12-31T08:09:49.872Z,18.55
2018-12-31T08:12:18.964Z,16.67
2018-12-31T08:14:47.997Z,16.65
2018-12-31T08:17:17.104Z,15.10
2018-12-31T08:19:46.209Z,16.05
2018-12-31T08:22:15.318Z,15.58
2018-12-31T08:24:44.384Z,14.05
2018-12-31T08:27:13.419Z,16.17
2018-12-31T08:29:42.502Z,16.60
2018-12-31T08:32:11.554Z,16.52
2018-12-31T08:34:40.590Z,19.20
2018-12-31T08:37:09.644Z,16.60
2018-12-31T08:39:38.696Z,16.10
2018-12-31T08:42:07.787Z,17.50
2018-12-31T08:44:36.818Z,17.55
2018-12-31T08:47:05.888Z,17.40
2018-12-31T08:49:34.922Z,19.45
2018-12-31T08:52:04.062Z,17.57
2018-12-31T08:54:33.123Z,20.72
2018-12-31T08:57:02.177Z,18.02
2018-12-31T08:59:37.115Z,20.45
2018-12-31T09:02:06.173Z,18.15
2018-12-31T09:04:35.229Z,20.48
2018-12-31T09:07:04.271Z,18.90
2018-12-31T09:09:33.341Z,15.55
2018-12-31T09:12:02.385Z,18.95
2018-12-31T09:14:31.467Z,15.83
2018-12-31T09:17:00.527Z,19.45
2018-12-31T09:19:29.583Z,19.45
2018-12-31T09:21:58.637Z,18.42
2018-12-31T09:24:27.675Z,20.20
2018-12-31T09:26:56.729Z,15.95
2018-12-31T09:29:25.821Z,19.40
2018-12-31T09:31:54.893Z,19.25
2018-12-31T09:34:23.944Z,21.40
2018-12-31T09:36:53.026Z,19.75
2018-12-31T09:39:22.089Z,23.02
2018-12-31T09:41:51.158Z,18.15
2018-12-31T09:44:20.223Z,20.72
2018-12-31T09:46:49.351Z,21.68
2018-12-31T09:49:18.393Z,23.15
2018-12-31T09:51:47.451Z,27.32
2018-12-31T09:54:16.597Z,23.52
2018-12-31T09:56:45.706Z,23.95
2018-12-31T09:59:14.892Z,24.52
2018-12-31T10:01:44.003Z,23.90
2018-12-31T10:04:13.121Z,24.77
2018-12-31T10:06:42.218Z,22.50
2018-12-31T10:09:12.047Z,22.95
2018-12-31T10:11:41.213Z,23.38
2018-12-31T10:14:10.305Z,25.70
2018-12-31T10:16:39.446Z,26.65
2018-12-31T10:19:08.518Z,22.73
2018-12-31T10:21:41.160Z,26.25
2018-12-31T10:24:08.378Z,25.15
2018-12-31T10:26:37.515Z,23.40
2018-12-31T10:29:06.591Z,25.23
2018-12-31T10:31:35.688Z,26.52
2018-12-31T10:34:04.730Z,24.70
2018-12-31T10:36:33.793Z,23.85
2018-12-31T10:39:04.497Z,28.42
2018-12-31T10:41:33.544Z,28.75
2018-12-31T10:44:02.703Z,26.70
2018-12-31T10:46:31.764Z,28.83
2018-12-31T10:49:00.823Z,26.33
2018-12-31T10:51:29.946Z,25.82
2018-12-31T10:53:58.994Z,25.90
2018-12-31T10:56:28.137Z,25.00
2018-12-31T10:58:57.408Z,24.30
2018-12-31T11:01:26.466Z,23.32
2018-12-31T11:03:55.506Z,24.12
2018-12-31T11:06:24.570Z,24.10
2018-12-31T11:08:53.686Z,25.10
2018-12-31T11:11:22.976Z,23.47
2018-12-31T11:13:52.090Z,27.50
2018-12-31T11:16:21.152Z,24.32
2018-12-31T11:18:50.234Z,23.77
2018-12-31T11:21:19.367Z,23.95
2018-12-31T11:23:48.436Z,22.55
2018-12-31T11:26:17.489Z,21.40
2018-12-31T11:28:46.549Z,23.65
2018-12-31T11:31:15.625Z,23.12
2018-12-31T11:33:44.697Z,24.05
2018-12-31T11:36:13.740Z,23.85
2018-12-31T11:38:42.909Z,27.55
2018-12-31T11:41:11.958Z,26.87
2018-12-31T11:43:41.119Z,25.90
2018-12-31T11:46:10.157Z,26.02
2018-12-31T11:48:39.215Z,24.95
2018-12-31T11:51:08.297Z,27.77
2018-12-31T11:53:37.353Z,24.92
2018-12-31T11:56:06.421Z,22.30
2018-12-31T11:58:35.601Z,24.65
2018-12-31T12:01:04.654Z,25.72
2018-12-31T12:03:33.701Z,27.27
2018-12-31T12:06:02.770Z,26.05
2018-12-31T12:08:31.802Z,30.77
2018-12-31T12:11:00.883Z,28.52
2018-12-31T12:13:30.219Z,26.70
2018-12-31T12:15:59.258Z,25.45
2018-12-31T12:18:28.326Z,24.07
2018-12-31T12:20:57.390Z,28.05
2018-12-31T12:23:26.552Z,22.80
2018-12-31T12:25:56.005Z,24.23
2018-12-31T12:28:25.160Z,23.22
2018-12-31T12:30:54.391Z,20.92
2018-12-31T12:33:23.456Z,22.60
2018-12-31T12:35:52.511Z,20.02
2018-12-31T12:38:21.752Z,20.25
2018-12-31T12:40:50.797Z,22.32
2018-12-31T12:43:19.867Z,22.13
2018-12-31T12:45:48.919Z,23.27
2018-12-31T12:48:17.984Z,21.27
2018-12-31T12:50:47.035Z,21.73
2018-12-31T12:53:16.276Z,22.30
2018-12-31T12:55:45.335Z,19.10
2018-12-31T12:58:14.396Z,20.40
2018-12-31T13:00:43.547Z,22.98
2018-12-31T13:03:12.668Z,21.87
2018-12-31T13:05:41.763Z,25.12
2018-12-31T13:08:10.900Z,23.22
2018-12-31T13:10:40.041Z,22.55
2018-12-31T13:13:09.095Z,21.93
2018-12-31T13:15:38.167Z,23.20
2018-12-31T13:18:07.228Z,20.65
2018-12-31T13:20:36.308Z,23.18
2018-12-31T13:23:05.440Z,20.10
2018-12-31T13:25:34.508Z,20.55
2018-12-31T13:28:03.570Z,22.62
2018-12-31T13:30:33.358Z,19.45
2018-12-31T13:33:02.643Z,22.62
2018-12-31T13:35:31.717Z,23.50
2018-12-31T13:38:00.777Z,20.82
2018-12-31T13:40:29.895Z,23.25
2018-12-31T13:42:58.993Z,21.05
2018-12-31T13:45:28.077Z,21.12
2018-12-31T13:47:57.195Z,23.38
2018-12-31T13:50:26.255Z,23.38
2018-12-31T13:52:55.303Z,22.40
2018-12-31T13:55:24.374Z,21.75
2018-12-31T13:57:53.421Z,23.20
2018-12-31T14:00:22.508Z,23.45
2018-12-31T14:02:51.659Z,24.30
2018-12-31T14:05:20.787Z,23.83
2018-12-31T14:07:49.909Z,24.70
2018-12-31T14:10:20.805Z,25.97
2018-12-31T14:12:49.842Z,25.43
2018-12-31T14:15:19.288Z,23.67
2018-12-31T14:17:48.344Z,24.25
2018-12-31T14:20:17.410Z,23.38
2018-12-31T14:22:46.456Z,24.23
2018-12-31T14:25:15.520Z,25.25
2018-12-31T14:27:44.866Z,24.18
2018-12-31T14:30:13.946Z,23.55
2018-12-31T14:32:43.055Z,23.12
2018-12-31T14:35:12.126Z,22.37
2018-12-31T14:37:41.179Z,22.77
2018-12-31T14:40:10.510Z,24.60
2018-12-31T14:42:39.574Z,24.32
2018-12-31T14:45:08.636Z,22.98
2018-12-31T14:47:37.761Z,23.55
2018-12-31T14:50:07.344Z,23.60
2018-12-31T14:52:36.423Z,23.18
2018-12-31T14:55:05.681Z,25.37
2018-12-31T14:57:34.743Z,23.38
2018-12-31T15:00:05.711Z,23.40
2018-12-31T15:02:34.774Z,22.77
2018-12-31T15:05:04.345Z,23.77
2018-12-31T15:07:33.411Z,22.45
2018-12-31T15:10:02.461Z,19.48
2018-12-31T15:12:31.559Z,17.27
2018-12-31T15:15:00.631Z,21.93
2018-12-31T15:17:29.707Z,18.42
2018-12-31T15:19:58.755Z,18.40
2018-12-31T15:22:29.231Z,23.12
2018-12-31T15:24:58.557Z,22.02
2018-12-31T15:27:27.623Z,20.08
2018-12-31T15:29:56.740Z,25.65
2018-12-31T15:32:25.789Z,49.70
2018-12-31T15:34:54.835Z,41.18
2018-12-31T15:37:23.908Z,33.05
2018-12-31T15:39:52.949Z,19.32
2018-12-31T15:42:22.009Z,17.50
2018-12-31T15:44:51.056Z,16.02
2018-12-31T15:47:20.121Z,17.60
2018-12-31T15:49:49.185Z,15.25
2018-12-31T15:52:18.247Z,16.65
2018-12-31T15:54:47.279Z,20.32
2018-12-31T15:57:16.362Z,16.65
2018-12-31T15:59:45.406Z,20.02
2018-12-31T16:02:14.478Z,23.30
2018-12-31T16:04:43.520Z,25.05
2018-12-31T16:07:12.580Z,25.70
2018-12-31T16:09:41.666Z,24.63
2018-12-31T16:12:10.740Z,31.37
2018-12-31T16:14:39.860Z,24.05
2018-12-31T16:17:08.935Z,24.67
2018-12-31T16:19:37.989Z,23.73
2018-12-31T16:22:07.042Z,22.42
2018-12-31T16:24:36.085Z,20.55
2018-12-31T16:27:05.174Z,31.05
2018-12-31T16:29:34.246Z,24.05
2018-12-31T16:32:03.369Z,33.88
2018-12-31T16:34:32.517Z,35.00
2018-12-31T16:37:01.632Z,48.45
2018-12-31T16:39:30.692Z,39.67
2018-12-31T16:41:59.736Z,47.38
2018-12-31T16:44:28.847Z,118.35
2018-12-31T16:46:57.961Z,49.05
2018-12-31T16:49:27.020Z,37.98
2018-12-31T16:52:02.510Z,29.35
2018-12-31T16:54:26.898Z,30.80
2018-12-31T16:56:56.005Z,29.42
2018-12-31T16:59:25.078Z,28.85
2018-12-31T17:01:54.151Z,30.45
2018-12-31T17:04:23.223Z,29.05
2018-12-31T17:06:52.258Z,29.60
2018-12-31T17:09:21.336Z,28.87
2018-12-31T17:11:50.460Z,28.32
2018-12-31T17:14:19.529Z,29.30
2018-12-31T17:16:48.581Z,34.08
2018-12-31T17:19:17.714Z,45.30
2018-12-31T17:21:46.845Z,33.50
2018-12-31T17:24:15.923Z,36.33
2018-12-31T17:26:45.037Z,41.70
2018-12-31T17:29:14.097Z,45.55
2018-12-31T17:31:43.220Z,42.80
2018-12-31T17:34:12.572Z,40.92
2018-12-31T17:36:41.643Z,42.95
2018-12-31T17:39:10.717Z,44.65
2018-12-31T17:41:39.771Z,42.67
2018-12-31T17:44:08.933Z,38.38
2018-12-31T17:46:38.453Z,35.88
2018-12-31T17:49:07.520Z,44.25
2018-12-31T17:51:36.561Z,40.08
2018-12-31T17:54:05.604Z,36.33
2018-12-31T17:56:34.688Z,39.53
2018-12-31T17:59:04.107Z,37.50
2018-12-31T18:01:33.189Z,39.92
2018-12-31T18:04:02.254Z,42.40
2018-12-31T18:06:31.316Z,38.65
2018-12-31T18:09:00.346Z,35.20
2018-12-31T18:11:29.782Z,36.38
2018-12-31T18:13:58.842Z,39.78
2018-12-31T18:16:27.902Z,41.90
2018-12-31T18:18:56.956Z,46.37
2018-12-31T18:21:26.034Z,73.55
2018-12-31T18:23:55.416Z,46.30
2018-12-31T18:26:24.514Z,42.38
2018-12-31T18:28:53.584Z,47.62
2018-12-31T18:31:22.618Z,54.80
2018-12-31T18:33:51.691Z,43.60
2018-12-31T18:36:21.112Z,32.45
2018-12-31T18:38:50.183Z,34.25
2018-12-31T18:41:19.228Z,37.95
2018-12-31T18:43:48.313Z,36.05
2018-12-31T18:46:17.367Z,41.37
2018-12-31T18:48:47.077Z,37.28
2018-12-31T18:51:16.138Z,38.13
2018-12-31T18:53:45.183Z,39.67
2018-12-31T18:56:14.257Z,32.48
2018-12-31T18:58:43.312Z,30.55
2018-12-31T19:01:12.755Z,117.97
2018-12-31T19:03:41.802Z,41.05
2018-12-31T19:06:10.871Z,103.07
2018-12-31T19:08:39.933Z,75.92
2018-12-31T19:11:08.987Z,57.23
2018-12-31T19:13:38.400Z,84.42
2018-12-31T19:16:07.501Z,45.28
2018-12-31T19:18:36.614Z,44.23
2018-12-31T19:21:05.690Z,42.98
2018-12-31T19:23:34.731Z,48.50
2018-12-31T19:26:03.807Z,46.13
2018-12-31T19:28:32.860Z,46.80
2018-12-31T19:31:01.935Z,42.05
2018-12-31T19:33:31.065Z,48.68
2018-12-31T19:36:00.117Z,53.17
2018-12-31T19:38:29.181Z,57.83
2018-12-31T19:40:58.213Z,51.80
2018-12-31T19:43:27.287Z,47.60
2018-12-31T19:45:56.334Z,44.03
2018-12-31T19:48:25.403Z,42.13
2018-12-31T19:50:54.514Z,55.15
2018-12-31T19:53:23.564Z,57.13
2018-12-31T19:55:52.600Z,51.37
2018-12-31T19:58:21.748Z,40.92
2018-12-31T20:00:50.780Z,39.55
2018-12-31T20:03:19.867Z,40.25
2018-12-31T20:05:48.982Z,45.63
2018-12-31T20:08:18.065Z,43.73
2018-12-31T20:10:47.173Z,53.20
2018-12-31T20:13:16.227Z,46.13
2018-12-31T20:15:48.694Z,48.02
2018-12-31T20:18:16.106Z,43.92
2018-12-31T20:20:45.153Z,39.58
2018-12-31T20:23:14.242Z,41.68
2018-12-31T20:25:43.446Z,39.55
2018-12-31T20:28:12.572Z,69.35
2018-12-31T20:30:41.912Z,43.70
2018-12-31T20:33:11.001Z,48.78
2018-12-31T20:35:40.047Z,85.30
2018-12-31T20:38:09.192Z,89.72
2018-12-31T20:40:38.249Z,78.55
2018-12-31T20:43:07.316Z,63.73
2018-12-31T20:45:36.433Z,82.33
2018-12-31T20:48:05.557Z,101.95
2018-12-31T20:50:34.691Z,65.80
2018-12-31T20:53:03.948Z,61.85
2018-12-31T20:55:33.000Z,71.02
2018-12-31T20:58:02.575Z,78.50
2018-12-31T21:00:31.633Z,69.22
2018-12-31T21:03:00.716Z,65.70
2018-12-31T21:05:29.797Z,47.85
2018-12-31T21:07:58.871Z,112.68
2018-12-31T21:10:28.315Z,77.10
2018-12-31T21:12:57.401Z,61.58
2018-12-31T21:15:26.462Z,56.48
2018-12-31T21:17:55.533Z,45.70
2018-12-31T21:20:24.665Z,58.10
2018-12-31T21:22:53.713Z,45.83
2018-12-31T21:25:22.791Z,43.95
2018-12-31T21:27:51.841Z,44.15
2018-12-31T21:30:20.897Z,47.62
2018-12-31T21:32:49.956Z,69.97
2018-12-31T21:35:19.091Z,68.22
2018-12-31T21:37:48.127Z,67.32
2018-12-31T21:40:17.209Z,66.12
2018-12-31T21:42:46.241Z,51.45
2018-12-31T21:45:15.295Z,48.60
2018-12-31T21:47:44.347Z,64.77
2018-12-31T21:50:13.687Z,71.40
2018-12-31T21:52:42.720Z,84.17
2018-12-31T21:55:11.797Z,93.20
2018-12-31T21:57:40.851Z,93.67
2018-12-31T22:00:10.077Z,58.78
2018-12-31T22:02:39.609Z,74.87
2018-12-31T22:05:08.728Z,79.67
2018-12-31T22:07:37.790Z,59.30
2018-12-31T22:10:06.931Z,95.32
2018-12-31T22:12:35.996Z,61.95
2018-12-31T22:15:07.322Z,45.15
2018-12-31T22:17:36.367Z,47.20
2018-12-31T22:20:08.067Z,36.50
2018-12-31T22:22:37.113Z,52.70
2018-12-31T22:25:06.610Z,41.35
2018-12-31T22:27:36.131Z,54.30
2018-12-31T22:30:06.347Z,44.08
2018-12-31T22:32:35.407Z,40.52
2018-12-31T22:35:04.613Z,42.90
2018-12-31T22:37:33.677Z,40.50
2018-12-31T22:40:03.814Z,50.03
2018-12-31T22:42:32.936Z,69.75
2018-12-31T22:45:02.067Z,38.92
2018-12-31T22:47:31.136Z,43.98
2018-12-31T22:50:00.258Z,65.45
2018-12-31T22:52:29.696Z,52.03
2018-12-31T22:54:58.818Z,38.55
2018-12-31T22:57:27.908Z,38.42
2018-12-31T22:59:56.970Z,38.48
2018-12-31T23:02:26.025Z,84.75
2018-12-31T23:04:55.387Z,103.70
2018-12-31T23:07:24.476Z,252.68
2018-12-31T23:09:53.632Z,314.88
2018-12-31T23:12:24.182Z,301.98
2018-12-31T23:14:53.272Z,533.10
2018-12-31T23:17:22.637Z,468.82
2018-12-31T23:19:51.728Z,559.90
2018-12-31T23:22:20.807Z,395.42
2018-12-31T23:24:49.879Z,463.05
2018-12-31T23:27:19.071Z,447.10
2018-12-31T23:29:48.626Z,357.50
2018-12-31T23:32:17.776Z,312.48
2018-12-31T23:34:46.867Z,245.93
2018-12-31T23:37:15.983Z,270.90
2018-12-31T23:39:45.059Z,245.78
2018-12-31T23:42:14.607Z,212.95
2018-12-31T23:44:43.662Z,136.22
2018-12-31T23:47:12.730Z,147.02
2018-12-31T23:49:41.813Z,115.97
2018-12-31T23:52:10.876Z,136.30
2018-12-31T23:54:40.296Z,145.82
2018-12-31T23:57:09.360Z,141.92
2018-12-31T23:59:38.447Z,126.55
